createdAt,value
2022-11-13T00:00:02.313Z,87.09
2022-11-13T00:02:28.836Z,88.35
2022-11-13T00:04:55.296Z,88.55
2022-11-13T00:07:21.791Z,88.17
2022-11-13T00:09:48.251Z,89.36
2022-11-13T00:12:14.659Z,89.77
2022-11-13T00:14:41.132Z,90.69
2022-11-13T00:17:07.541Z,91.44
2022-11-13T00:19:33.943Z,92.21
2022-11-13T00:22:00.433Z,92.35
2022-11-13T00:24:26.923Z,91.95
2022-11-13T00:26:53.402Z,92.54
2022-11-13T00:29:19.871Z,91.70
2022-11-13T00:31:46.330Z,91.50
2022-11-13T00:34:45.889Z,91.76
2022-11-13T00:36:59.188Z,90.42
2022-11-13T00:39:25.621Z,90.07
2022-11-13T00:41:52.042Z,90.12
2022-11-13T00:44:18.456Z,89.64
2022-11-13T00:46:44.912Z,89.61
2022-11-13T00:49:11.336Z,89.79
2022-11-13T00:51:37.724Z,89.55
2022-11-13T00:54:04.469Z,89.31
2022-11-13T00:56:30.904Z,89.06
2022-11-13T00:58:57.340Z,88.55
2022-11-13T01:01:23.841Z,88.43
2022-11-13T01:03:50.306Z,87.98
2022-11-13T01:06:20.383Z,87.88
2022-11-13T01:08:47.593Z,86.62
2022-11-13T01:11:16.565Z,85.97
2022-11-13T01:13:45.011Z,85.67
2022-11-13T01:16:12.843Z,85.76
2022-11-13T01:18:41.278Z,84.87
2022-11-13T01:21:11.006Z,85.19
2022-11-13T01:23:37.686Z,85.45
2022-11-13T01:26:21.860Z,85.86
2022-11-13T01:28:48.611Z,85.38
2022-11-13T01:31:17.500Z,85.10
2022-11-13T01:33:45.298Z,85.44
2022-11-13T01:36:14.339Z,85.50
2022-11-13T01:38:40.831Z,85.26
2022-11-13T01:41:07.817Z,84.71
2022-11-13T01:43:38.588Z,85.03
2022-11-13T01:46:07.326Z,85.71
2022-11-13T01:48:39.915Z,86.48
2022-11-13T01:51:12.352Z,86.31
2022-11-13T01:53:39.718Z,86.92
2022-11-13T01:56:06.997Z,86.33
2022-11-13T01:58:33.785Z,85.95
2022-11-13T02:01:00.244Z,86.39
2022-11-13T02:03:26.694Z,87.02
2022-11-13T02:05:53.497Z,86.06
2022-11-13T02:08:19.998Z,85.92
2022-11-13T02:10:47.661Z,86.26
2022-11-13T02:13:14.528Z,86.02
2022-11-13T02:15:41.596Z,85.75
2022-11-13T02:18:08.181Z,84.72
2022-11-13T02:20:47.282Z,84.89
2022-11-13T02:23:19.772Z,84.83
2022-11-13T02:25:47.986Z,84.75
2022-11-13T02:28:14.460Z,84.18
2022-11-13T02:30:40.851Z,84.19
2022-11-13T02:33:30.238Z,84.01
2022-11-13T02:35:56.954Z,84.00
2022-11-13T02:38:23.646Z,84.32
2022-11-13T02:40:50.067Z,84.27
2022-11-13T02:43:16.467Z,84.94
2022-11-13T02:45:42.915Z,85.68
2022-11-13T02:48:09.510Z,85.17
2022-11-13T02:50:37.655Z,85.61
2022-11-13T02:53:04.927Z,86.03
2022-11-13T02:55:31.354Z,84.98
2022-11-13T02:57:57.804Z,85.34
2022-11-13T03:00:24.392Z,84.61
2022-11-13T03:02:50.828Z,85.22
2022-11-13T03:05:17.249Z,84.91
2022-11-13T03:07:43.700Z,85.48
2022-11-13T03:10:11.008Z,84.77
2022-11-13T03:12:37.693Z,84.81
2022-11-13T03:15:05.429Z,85.45
2022-11-13T03:17:32.605Z,84.92
2022-11-13T03:19:59.475Z,84.11
2022-11-13T03:22:26.452Z,84.32
2022-11-13T03:24:52.955Z,84.19
2022-11-13T03:27:19.691Z,83.77
2022-11-13T03:29:46.096Z,83.78
2022-11-13T03:32:12.556Z,84.41
2022-11-13T03:34:39.222Z,84.57
2022-11-13T03:37:05.635Z,84.95
2022-11-13T03:39:32.079Z,85.55
2022-11-13T03:41:58.532Z,85.63
2022-11-13T03:44:24.991Z,86.02
2022-11-13T03:46:51.395Z,86.12
2022-11-13T03:49:17.914Z,86.25
2022-11-13T03:51:44.308Z,86.74
2022-11-13T03:54:10.707Z,87.02
2022-11-13T03:56:37.097Z,87.54
2022-11-13T03:59:03.568Z,88.26
2022-11-13T04:01:30.004Z,89.43
2022-11-13T04:03:56.463Z,91.14
2022-11-13T04:06:22.858Z,91.52
2022-11-13T04:08:49.265Z,91.14
2022-11-13T04:11:15.700Z,91.89
2022-11-13T04:13:42.113Z,92.12
2022-11-13T04:16:08.723Z,92.19
2022-11-13T04:18:35.171Z,92.50
2022-11-13T04:21:03.094Z,93.37
2022-11-13T04:23:29.627Z,93.72
2022-11-13T04:25:56.089Z,94.34
2022-11-13T04:28:22.835Z,94.46
2022-11-13T04:30:49.605Z,94.71
2022-11-13T04:33:16.085Z,95.69
2022-11-13T04:35:45.610Z,96.67
2022-11-13T04:38:12.829Z,97.43
2022-11-13T04:40:40.094Z,97.98
2022-11-13T04:43:06.559Z,98.96
2022-11-13T04:45:32.990Z,100.00
2022-11-13T04:47:59.387Z,100.00
2022-11-13T04:50:26.000Z,100.00
2022-11-13T04:52:52.400Z,100.00
2022-11-13T04:55:18.893Z,100.00
2022-11-13T04:57:45.312Z,100.00
2022-11-13T05:00:12.291Z,100.00
2022-11-13T05:02:38.747Z,100.00
2022-11-13T05:05:05.712Z,100.00
2022-11-13T05:07:32.239Z,100.00
2022-11-13T05:09:58.642Z,100.00
2022-11-13T05:12:25.043Z,100.00
2022-11-13T05:14:51.505Z,100.00
2022-11-13T05:17:17.940Z,100.00
2022-11-13T05:19:44.345Z,100.00
2022-11-13T05:22:10.800Z,100.00
2022-11-13T05:24:37.197Z,100.00
2022-11-13T05:27:03.625Z,100.00
2022-11-13T05:29:30.063Z,100.00
2022-11-13T05:31:56.471Z,100.00
2022-11-13T05:34:22.931Z,100.00
2022-11-13T05:36:49.360Z,100.00
2022-11-13T05:39:15.806Z,100.00
2022-11-13T05:41:42.229Z,100.00
2022-11-13T05:44:08.733Z,100.00
2022-11-13T05:46:35.269Z,100.00
2022-11-13T05:49:02.593Z,100.00
2022-11-13T05:51:31.446Z,100.00
2022-11-13T05:53:58.489Z,100.00
2022-11-13T05:56:33.975Z,100.00
2022-11-13T05:59:01.403Z,100.00
2022-11-13T06:01:30.995Z,100.00
2022-11-13T06:03:58.671Z,100.00
2022-11-13T06:06:26.049Z,100.00
2022-11-13T06:08:54.146Z,100.00
2022-11-13T06:11:23.086Z,100.00
2022-11-13T06:13:50.413Z,100.00
2022-11-13T06:16:19.236Z,100.00
2022-11-13T06:18:46.203Z,100.00
2022-11-13T06:21:15.387Z,100.00
2022-11-13T06:23:42.156Z,100.00
2022-11-13T06:26:23.682Z,100.00
2022-11-13T06:28:50.612Z,100.00
2022-11-13T06:31:20.080Z,100.00
2022-11-13T06:33:46.825Z,100.00
2022-11-13T06:36:15.454Z,100.00
2022-11-13T06:38:43.116Z,100.00
2022-11-13T06:41:12.547Z,100.00
2022-11-13T06:43:39.239Z,100.00
2022-11-13T06:46:10.031Z,100.00
2022-11-13T06:48:36.414Z,100.00
2022-11-13T06:51:07.675Z,100.00
2022-11-13T06:53:34.401Z,100.00
2022-11-13T06:56:00.953Z,100.00
2022-11-13T06:58:27.866Z,100.00
2022-11-13T07:00:54.570Z,100.00
2022-11-13T07:03:25.978Z,100.00
2022-11-13T07:05:52.739Z,100.00
2022-11-13T07:08:19.152Z,100.00
2022-11-13T07:10:53.581Z,100.00
2022-11-13T07:13:20.098Z,100.00
2022-11-13T07:15:46.817Z,100.00
2022-11-13T07:18:13.279Z,100.00
2022-11-13T07:20:40.026Z,100.00
2022-11-13T07:23:06.441Z,100.00
2022-11-13T07:25:33.219Z,100.00
2022-11-13T07:27:59.638Z,100.00
2022-11-13T07:30:26.247Z,100.00
2022-11-13T07:32:52.658Z,100.00
2022-11-13T07:35:19.348Z,100.00
2022-11-13T07:37:45.760Z,100.00
2022-11-13T07:40:12.740Z,100.00
2022-11-13T07:42:39.673Z,100.00
2022-11-13T07:45:06.748Z,100.00
2022-11-13T07:47:33.172Z,100.00
2022-11-13T07:50:05.685Z,100.00
2022-11-13T07:52:34.680Z,100.00
2022-11-13T07:55:01.140Z,100.00
2022-11-13T07:57:27.554Z,100.00
2022-11-13T07:59:54.016Z,100.00
2022-11-13T08:02:25.197Z,100.00
2022-11-13T08:04:53.105Z,100.00
2022-11-13T08:07:19.535Z,100.00
2022-11-13T08:09:45.969Z,100.00
2022-11-13T08:12:12.422Z,100.00
2022-11-13T08:14:38.836Z,100.00
2022-11-13T08:17:05.270Z,100.00
2022-11-13T08:19:31.663Z,100.00
2022-11-13T08:21:58.140Z,100.00
2022-11-13T08:24:24.606Z,100.00
2022-11-13T08:26:51.020Z,100.00
2022-11-13T08:29:17.452Z,100.00
2022-11-13T08:31:43.939Z,100.00
2022-11-13T08:34:10.356Z,100.00
2022-11-13T08:36:36.768Z,100.00
2022-11-13T08:39:03.225Z,100.00
2022-11-13T08:41:29.626Z,100.00
2022-11-13T08:43:56.042Z,100.00
2022-11-13T08:46:22.481Z,100.00
2022-11-13T08:48:48.937Z,100.00
2022-11-13T08:51:15.341Z,100.00
2022-11-13T08:53:41.791Z,100.00
2022-11-13T08:56:08.211Z,100.00
2022-11-13T08:58:34.692Z,100.00
2022-11-13T09:01:01.945Z,100.00
2022-11-13T09:03:28.486Z,100.00
2022-11-13T09:05:54.924Z,100.00
2022-11-13T09:08:21.362Z,100.00
2022-11-13T09:10:47.874Z,100.00
2022-11-13T09:13:14.283Z,100.00
2022-11-13T09:15:40.767Z,100.00
2022-11-13T09:18:07.273Z,100.00
2022-11-13T09:20:33.987Z,100.00
2022-11-13T09:23:05.889Z,100.00
2022-11-13T09:25:37.605Z,100.00
2022-11-13T09:28:05.626Z,100.00
2022-11-13T09:30:32.074Z,100.00
2022-11-13T09:33:00.180Z,100.00
2022-11-13T09:35:36.775Z,100.00
2022-11-13T09:38:11.122Z,100.00
2022-11-13T09:40:40.991Z,100.00
2022-11-13T09:43:15.826Z,100.00
2022-11-13T09:45:42.383Z,100.00
2022-11-13T09:48:23.773Z,100.00
2022-11-13T09:50:51.110Z,100.00
2022-11-13T09:53:17.918Z,100.00
2022-11-13T09:56:21.757Z,100.00
2022-11-13T09:59:13.177Z,100.00
2022-11-13T10:01:49.120Z,100.00
2022-11-13T10:04:21.584Z,100.00
2022-11-13T10:07:00.106Z,100.00
2022-11-13T10:09:54.426Z,100.00
2022-11-13T10:12:21.147Z,100.00
2022-11-13T10:14:51.286Z,100.00
2022-11-13T10:17:26.982Z,100.00
2022-11-13T10:19:57.684Z,100.00
2022-11-13T10:22:36.152Z,100.00
2022-11-13T10:25:22.942Z,100.00
2022-11-13T10:27:58.986Z,100.00
2022-11-13T10:30:25.691Z,100.00
2022-11-13T10:32:52.560Z,100.00
2022-11-13T10:35:45.507Z,100.00
2022-11-13T10:38:23.541Z,100.00
2022-11-13T10:40:49.989Z,100.00
2022-11-13T10:43:24.615Z,100.00
2022-11-13T10:46:00.412Z,100.00
2022-11-13T10:48:35.455Z,100.00
2022-11-13T10:51:04.383Z,100.00
2022-11-13T10:53:39.459Z,100.00
2022-11-13T10:56:30.050Z,100.00
2022-11-13T10:59:17.157Z,100.00
2022-11-13T11:01:45.570Z,100.00
2022-11-13T11:04:27.443Z,100.00
2022-11-13T11:07:19.226Z,100.00
2022-11-13T11:09:43.129Z,100.00
2022-11-13T11:12:16.651Z,100.00
2022-11-13T11:14:58.714Z,100.00
2022-11-13T11:17:47.375Z,100.00
2022-11-13T11:20:21.899Z,100.00
2022-11-13T11:22:57.365Z,100.00
2022-11-13T11:25:38.913Z,100.00
2022-11-13T11:28:19.913Z,100.00
2022-11-13T11:30:52.523Z,100.00
2022-11-13T11:33:23.482Z,100.00
2022-11-13T11:35:56.060Z,100.00
2022-11-13T11:38:31.080Z,100.00
2022-11-13T11:41:13.355Z,100.00
2022-11-13T11:43:45.838Z,100.00
2022-11-13T11:46:22.841Z,100.00
2022-11-13T11:48:49.868Z,100.00
2022-11-13T11:51:19.195Z,100.00
2022-11-13T11:53:58.016Z,100.00
2022-11-13T11:56:40.432Z,100.00
2022-11-13T11:59:13.197Z,100.00
2022-11-13T12:02:05.880Z,100.00
2022-11-13T12:04:52.197Z,100.00
2022-11-13T12:07:55.755Z,100.00
2022-11-13T12:10:45.322Z,100.00
2022-11-13T12:13:25.981Z,100.00
2022-11-13T12:16:09.508Z,100.00
2022-11-13T12:18:54.148Z,100.00
2022-11-13T12:21:23.795Z,100.00
2022-11-13T12:24:01.672Z,100.00
2022-11-13T12:26:59.065Z,100.00
2022-11-13T12:29:44.280Z,100.00
2022-11-13T12:32:46.916Z,100.00
2022-11-13T12:35:19.035Z,100.00
2022-11-13T12:37:51.618Z,100.00
2022-11-13T12:40:44.705Z,100.00
2022-11-13T12:43:29.794Z,100.00
2022-11-13T12:46:00.553Z,100.00
2022-11-13T12:48:41.925Z,100.00
2022-11-13T12:51:13.581Z,100.00
2022-11-13T12:54:06.398Z,100.00
2022-11-13T12:56:33.636Z,100.00
2022-11-13T12:59:33.809Z,100.00
2022-11-13T13:02:40.388Z,100.00
2022-11-13T13:05:15.907Z,100.00
2022-11-13T13:08:18.387Z,100.00
2022-11-13T13:11:19.635Z,100.00
2022-11-13T13:13:46.012Z,100.00
2022-11-13T13:16:21.977Z,100.00
2022-11-13T13:18:48.672Z,100.00
2022-11-13T13:21:17.601Z,100.00
2022-11-13T13:23:46.290Z,100.00
2022-11-13T13:26:15.903Z,100.00
2022-11-13T13:28:46.925Z,100.00
2022-11-13T13:31:20.106Z,100.00
2022-11-13T13:33:54.120Z,100.00
2022-11-13T13:36:36.322Z,100.00
2022-11-13T13:39:20.905Z,100.00
2022-11-13T13:42:09.096Z,100.00
2022-11-13T13:45:14.272Z,100.00
2022-11-13T13:47:45.264Z,100.00
2022-11-13T13:50:16.557Z,100.00
2022-11-13T13:52:43.748Z,100.00
2022-11-13T13:55:19.189Z,99.61
2022-11-13T13:57:45.997Z,98.38
2022-11-13T14:00:13.691Z,97.44
2022-11-13T14:02:51.592Z,97.57
2022-11-13T14:05:32.939Z,97.85
2022-11-13T14:08:00.738Z,98.14
2022-11-13T14:10:28.561Z,97.79
2022-11-13T14:12:56.087Z,97.94
2022-11-13T14:15:24.057Z,97.45
2022-11-13T14:17:50.724Z,97.26
2022-11-13T14:20:18.455Z,96.87
2022-11-13T14:22:51.709Z,96.92
2022-11-13T14:25:27.225Z,96.71
2022-11-13T14:27:53.756Z,96.92
2022-11-13T14:30:26.665Z,97.15
2022-11-13T14:32:53.601Z,97.06
2022-11-13T14:35:25.212Z,97.50
2022-11-13T14:37:52.803Z,97.12
2022-11-13T14:40:22.832Z,96.71
2022-11-13T14:42:55.921Z,96.51
2022-11-13T14:45:24.739Z,96.46
2022-11-13T14:48:20.620Z,96.25
2022-11-13T14:50:59.336Z,96.07
2022-11-13T14:53:31.241Z,95.90
2022-11-13T14:56:01.426Z,95.56
2022-11-13T14:58:29.722Z,95.21
2022-11-13T15:00:57.566Z,95.44
2022-11-13T15:03:24.246Z,94.80
2022-11-13T15:05:50.736Z,94.87
2022-11-13T15:08:17.358Z,94.98
2022-11-13T15:10:43.785Z,94.90
2022-11-13T15:13:15.198Z,94.79
2022-11-13T15:15:41.834Z,94.44
2022-11-13T15:18:16.253Z,94.68
2022-11-13T15:20:43.181Z,94.61
2022-11-13T15:23:13.600Z,94.60
2022-11-13T15:25:40.045Z,94.75
2022-11-13T15:28:06.503Z,94.39
2022-11-13T15:30:32.924Z,94.36
2022-11-13T15:32:59.383Z,94.56
2022-11-13T15:35:25.813Z,94.80
2022-11-13T15:37:52.702Z,94.03
2022-11-13T15:40:19.269Z,94.30
2022-11-13T15:42:45.933Z,94.36
2022-11-13T15:45:16.350Z,94.30
2022-11-13T15:47:43.001Z,93.40
2022-11-13T15:50:14.393Z,92.53
2022-11-13T15:52:45.117Z,91.85
2022-11-13T15:55:29.151Z,91.13
2022-11-13T15:57:56.084Z,91.11
2022-11-13T16:00:25.138Z,92.51
2022-11-13T16:02:56.668Z,91.24
2022-11-13T16:05:25.228Z,90.48
2022-11-13T16:07:52.834Z,90.14
2022-11-13T16:10:20.534Z,91.98
2022-11-13T16:12:47.020Z,91.74
2022-11-13T16:15:16.580Z,90.83
2022-11-13T16:17:45.143Z,91.63
2022-11-13T16:20:15.308Z,92.26
2022-11-13T16:22:42.017Z,92.99
2022-11-13T16:25:14.279Z,92.22
2022-11-13T16:27:40.838Z,92.23
2022-11-13T16:30:14.097Z,91.44
2022-11-13T16:32:40.486Z,92.22
2022-11-13T16:35:08.433Z,92.64
2022-11-13T16:37:35.360Z,93.43
2022-11-13T16:40:01.876Z,92.47
2022-11-13T16:42:31.017Z,91.82
2022-11-13T16:44:57.594Z,91.93
2022-11-13T16:47:25.450Z,92.27
2022-11-13T16:49:52.551Z,92.27
2022-11-13T16:52:19.092Z,91.82
2022-11-13T16:54:45.601Z,91.65
2022-11-13T16:57:13.266Z,91.94
2022-11-13T16:59:40.407Z,92.05
2022-11-13T17:02:17.376Z,91.47
2022-11-13T17:04:44.360Z,91.84
2022-11-13T17:07:13.032Z,91.84
2022-11-13T17:09:45.867Z,92.43
2022-11-13T17:12:12.308Z,93.43
2022-11-13T17:14:39.060Z,94.38
2022-11-13T17:17:07.237Z,94.91
2022-11-13T17:19:33.719Z,94.74
2022-11-13T17:22:00.468Z,93.75
2022-11-13T17:24:26.977Z,93.53
2022-11-13T17:26:53.375Z,94.19
2022-11-13T17:29:19.834Z,95.26
2022-11-13T17:31:46.269Z,94.18
2022-11-13T17:34:12.671Z,93.66
2022-11-13T17:36:39.098Z,93.82
2022-11-13T17:39:05.522Z,93.86
2022-11-13T17:41:31.948Z,93.54
2022-11-13T17:44:01.269Z,92.54
2022-11-13T17:46:28.048Z,91.95
2022-11-13T17:48:54.457Z,91.98
2022-11-13T17:51:21.029Z,91.39
2022-11-13T17:53:47.431Z,92.34
2022-11-13T17:56:14.222Z,92.65
2022-11-13T17:58:45.211Z,91.97
2022-11-13T18:01:22.150Z,91.73
2022-11-13T18:03:54.280Z,92.05
2022-11-13T18:06:21.121Z,92.28
2022-11-13T18:08:47.537Z,91.95
2022-11-13T18:11:19.315Z,91.48
2022-11-13T18:13:49.997Z,91.44
2022-11-13T18:16:19.547Z,91.42
2022-11-13T18:18:51.236Z,90.45
2022-11-13T18:21:22.729Z,90.39
2022-11-13T18:23:50.014Z,90.14
2022-11-13T18:26:18.543Z,89.70
2022-11-13T18:28:45.141Z,89.39
2022-11-13T18:31:15.006Z,89.44
2022-11-13T18:33:41.645Z,89.29
2022-11-13T18:36:08.851Z,88.95
2022-11-13T18:38:35.513Z,89.14
2022-11-13T18:41:10.737Z,89.80
2022-11-13T18:43:37.683Z,91.07
2022-11-13T18:46:06.916Z,92.11
2022-11-13T18:48:41.642Z,93.65
2022-11-13T18:51:14.628Z,94.85
2022-11-13T18:53:41.925Z,95.02
2022-11-13T18:56:11.182Z,96.26
2022-11-13T18:58:43.481Z,96.68
2022-11-13T19:01:15.083Z,97.00
2022-11-13T19:04:08.172Z,97.80
2022-11-13T19:06:31.189Z,98.53
2022-11-13T19:08:58.994Z,98.97
2022-11-13T19:11:26.479Z,99.54
2022-11-13T19:13:53.502Z,99.86
2022-11-13T19:16:23.139Z,100.00
2022-11-13T19:18:52.356Z,100.00
2022-11-13T19:21:19.882Z,100.00
2022-11-13T19:23:46.273Z,100.00
2022-11-13T19:26:12.762Z,100.00
2022-11-13T19:28:39.263Z,100.00
2022-11-13T19:31:12.976Z,100.00
2022-11-13T19:33:39.781Z,100.00
2022-11-13T19:36:08.755Z,100.00
2022-11-13T19:38:35.863Z,100.00
2022-11-13T19:41:02.909Z,100.00
2022-11-13T19:43:33.742Z,100.00
2022-11-13T19:46:08.178Z,100.00
2022-11-13T19:48:36.091Z,100.00
2022-11-13T19:51:09.629Z,100.00
2022-11-13T19:53:36.846Z,100.00
2022-11-13T19:56:03.878Z,100.00
2022-11-13T19:58:30.853Z,100.00
2022-11-13T20:00:57.854Z,100.00
2022-11-13T20:03:26.011Z,100.00
2022-11-13T20:05:59.251Z,100.00
2022-11-13T20:08:28.123Z,100.00
2022-11-13T20:11:01.392Z,100.00
2022-11-13T20:13:27.842Z,100.00
2022-11-13T20:15:54.742Z,100.00
2022-11-13T20:18:21.182Z,100.00
2022-11-13T20:20:51.799Z,100.00
2022-11-13T20:23:21.166Z,100.00
2022-11-13T20:25:54.681Z,100.00
2022-11-13T20:28:21.433Z,100.00
2022-11-13T20:30:47.851Z,100.00
2022-11-13T20:33:18.482Z,100.00
2022-11-13T20:35:53.800Z,100.00
2022-11-13T20:38:20.214Z,100.00
2022-11-13T20:40:46.616Z,100.00
2022-11-13T20:43:13.010Z,100.00
2022-11-13T20:45:39.420Z,100.00
2022-11-13T20:48:05.949Z,100.00
2022-11-13T20:50:35.677Z,100.00
2022-11-13T20:53:02.111Z,100.00
2022-11-13T20:55:28.578Z,100.00
2022-11-13T20:57:54.999Z,100.00
2022-11-13T21:00:21.547Z,100.00
2022-11-13T21:02:48.177Z,100.00
2022-11-13T21:05:15.360Z,100.00
2022-11-13T21:07:41.775Z,100.00
2022-11-13T21:10:08.593Z,100.00
2022-11-13T21:12:35.132Z,100.00
2022-11-13T21:15:01.664Z,100.00
2022-11-13T21:17:28.073Z,100.00
2022-11-13T21:19:57.580Z,100.00
2022-11-13T21:22:24.255Z,100.00
2022-11-13T21:24:50.664Z,100.00
2022-11-13T21:27:17.102Z,100.00
2022-11-13T21:29:43.555Z,100.00
2022-11-13T21:32:09.970Z,100.00
2022-11-13T21:34:36.413Z,100.00
2022-11-13T21:37:02.851Z,100.00
2022-11-13T21:39:29.374Z,100.00
2022-11-13T21:41:55.765Z,100.00
2022-11-13T21:44:22.200Z,100.00
2022-11-13T21:46:48.624Z,100.00
2022-11-13T21:49:15.057Z,100.00
2022-11-13T21:51:42.872Z,100.00
2022-11-13T21:54:09.691Z,100.00
2022-11-13T21:56:37.721Z,100.00
2022-11-13T21:59:05.120Z,100.00
2022-11-13T22:01:37.771Z,100.00
2022-11-13T22:04:05.233Z,100.00
2022-11-13T22:06:33.272Z,100.00
2022-11-13T22:09:02.017Z,100.00
2022-11-13T22:11:30.925Z,100.00
2022-11-13T22:13:57.691Z,100.00
2022-11-13T22:16:25.293Z,100.00
2022-11-13T22:18:55.836Z,100.00
2022-11-13T22:21:23.337Z,100.00
2022-11-13T22:23:50.216Z,100.00
2022-11-13T22:26:17.417Z,100.00
2022-11-13T22:28:44.966Z,100.00
2022-11-13T22:31:16.975Z,100.00
2022-11-13T22:33:47.807Z,100.00
2022-11-13T22:36:18.454Z,100.00
2022-11-13T22:38:44.938Z,100.00
2022-11-13T22:41:22.568Z,100.00
2022-11-13T22:44:00.683Z,100.00
2022-11-13T22:46:29.162Z,100.00
2022-11-13T22:48:57.429Z,100.00
2022-11-13T22:51:31.853Z,100.00
2022-11-13T22:54:00.456Z,100.00
2022-11-13T22:56:29.329Z,100.00
2022-11-13T22:58:57.087Z,100.00
2022-11-13T23:01:32.132Z,100.00
2022-11-13T23:04:01.186Z,100.00
2022-11-13T23:06:29.326Z,100.00
2022-11-13T23:08:55.792Z,100.00
2022-11-13T23:11:26.432Z,100.00
2022-11-13T23:13:55.170Z,100.00
2022-11-13T23:16:22.804Z,100.00
2022-11-13T23:18:50.416Z,100.00
2022-11-13T23:21:17.574Z,100.00
2022-11-13T23:23:44.194Z,100.00
2022-11-13T23:26:11.481Z,100.00
2022-11-13T23:28:39.431Z,100.00
2022-11-13T23:31:06.129Z,100.00
2022-11-13T23:33:32.553Z,100.00
2022-11-13T23:35:59.347Z,100.00
2022-11-13T23:38:25.951Z,100.00
2022-11-13T23:40:54.464Z,100.00
2022-11-13T23:43:21.161Z,100.00
2022-11-13T23:45:47.574Z,100.00
2022-11-13T23:48:14.012Z,100.00
2022-11-13T23:50:40.483Z,100.00
2022-11-13T23:53:06.888Z,100.00
2022-11-13T23:55:33.436Z,100.00
2022-11-13T23:58:01.065Z,100.00
